Weather at Altiport du Glacier De La Grande Motte

Public forecast

Using degrees Celsius for public forecast. Weather courtesy of forecast.io.

Closest aviation weather report (METAR) to Altiport du Glacier De La Grande Motte

Closest report is Aosta Airport, 27.4 nm (50.8 km) NE. Retrieved 2020/09/22 14:20 UTC (0 seconds ago):

LIMW 221420Z AUTO 09008KT 050V120 9999 SCT086 20/14 Q1014

Closest aviation forecast (TAF) to Altiport du Glacier De La Grande Motte

Closest forecast is Turin Airport, 34.6 nm (64.1 km) ESE. Retrieved 2020/09/22 12:23 UTC (2 hours ago):

TAF LIMF 221100Z 2212/2312 VRB05KT 7000 BKN050 TEMPO 2212/2218 SHRA